Time;durP1;ratioP1;P1;durP2;ratioP2;P2;SDS_P1;SDS_P2;PMS_P1;PMS_P2;Temp;Humidity;BMP_temperature;BMP_pressure;BME280_temperature;BME280_humidity;BME280_pressure;Samples;Min_cycle;Max_cycle;Signal;HPM_P1;HPM_P2
2021/10/25 00:00:10;;;;;;;18.43;8.27;;;4.90;99.90;;;;;;5040103;28;20232;-74
2021/10/25 00:02:41;;;;;;;23.17;9.97;;;4.90;99.90;;;;;;5038205;28;20292;-74
2021/10/25 00:05:09;;;;;;;17.13;8.63;;;4.80;99.90;;;;;;5047954;28;20207;-74
2021/10/25 00:07:37;;;;;;;20.53;8.53;;;4.80;99.90;;;;;;5034249;28;20194;-73
2021/10/25 00:10:05;;;;;;;19.00;8.83;;;4.80;99.90;;;;;;5060558;28;20209;-73
2021/10/25 00:12:33;;;;;;;17.47;8.50;;;4.70;99.90;;;;;;5045700;28;20200;-74
2021/10/25 00:15:00;;;;;;;16.37;7.13;;;4.70;99.90;;;;;;5048819;28;20673;-74
2021/10/25 00:17:27;;;;;;;17.97;8.20;;;4.70;99.90;;;;;;5034559;28;20285;-74
2021/10/25 00:19:54;;;;;;;15.73;7.87;;;4.70;99.90;;;;;;5035385;28;20202;-74
2021/10/25 00:22:21;;;;;;;15.10;6.97;;;4.70;99.90;;;;;;5034321;28;20259;-74
2021/10/25 00:24:50;;;;;;;14.93;6.87;;;4.70;99.90;;;;;;5034184;28;20202;-74
2021/10/25 00:27:17;;;;;;;12.33;6.40;;;4.70;99.90;;;;;;5032901;28;20649;-74
2021/10/25 00:29:45;;;;;;;11.47;6.00;;;4.70;99.90;;;;;;5033429;28;20209;-74
2021/10/25 00:32:12;;;;;;;12.13;6.03;;;4.70;99.90;;;;;;5032080;28;20206;-74
2021/10/25 00:34:39;;;;;;;13.03;6.27;;;4.70;99.90;;;;;;5051933;28;20262;-74
2021/10/25 00:37:07;;;;;;;9.17;5.43;;;4.70;99.90;;;;;;5034013;28;20198;-74
2021/10/25 00:39:34;;;;;;;9.97;5.70;;;4.70;99.90;;;;;;5045378;28;20692;-74
2021/10/25 00:42:04;;;;;;;14.40;6.30;;;4.70;99.90;;;;;;5034084;28;20213;-74
2021/10/25 00:44:32;;;;;;;15.97;7.23;;;4.70;99.90;;;;;;5032529;28;20606;-74
2021/10/25 00:47:00;;;;;;;20.10;7.90;;;4.60;99.90;;;;;;5032940;28;20214;-74
2021/10/25 00:49:27;;;;;;;15.97;7.27;;;4.60;99.90;;;;;;5035659;28;20221;-74
2021/10/25 00:51:55;;;;;;;17.37;7.73;;;4.60;99.90;;;;;;5034201;28;20208;-74
2021/10/25 00:54:22;;;;;;;13.23;6.70;;;4.60;99.90;;;;;;5032513;28;20265;-74
2021/10/25 00:56:50;;;;;;;13.57;6.50;;;4.50;99.90;;;;;;5037842;28;20202;-73
2021/10/25 00:59:18;;;;;;;15.07;7.33;;;4.50;99.90;;;;;;5032499;28;20206;-73
2021/10/25 01:01:46;;;;;;;12.13;7.43;;;4.50;99.90;;;;;;5033123;28;20202;-73
2021/10/25 01:04:13;;;;;;;19.37;8.57;;;4.50;99.90;;;;;;5042179;28;20560;-73
2021/10/25 01:06:41;;;;;;;19.83;8.97;;;4.50;99.90;;;;;;5050257;28;20292;-73
2021/10/25 01:09:10;;;;;;;16.03;7.87;;;4.40;99.90;;;;;;5046058;28;20697;-73
2021/10/25 01:11:39;;;;;;;18.73;8.33;;;4.40;99.90;;;;;;5050706;28;20228;-73
2021/10/25 01:14:09;;;;;;;19.27;8.47;;;4.30;99.90;;;;;;5051025;28;20201;-73
2021/10/25 01:16:38;;;;;;;18.53;8.37;;;4.30;99.90;;;;;;5043721;28;20207;-74
2021/10/25 01:19:05;;;;;;;16.00;7.20;;;4.30;99.90;;;;;;5051693;28;20209;-73
2021/10/25 01:21:34;;;;;;;13.87;7.00;;;4.30;99.90;;;;;;5051322;28;20236;-73
2021/10/25 01:24:01;;;;;;;19.60;8.03;;;4.30;99.90;;;;;;5041377;28;20354;-74
2021/10/25 01:26:29;;;;;;;17.73;8.53;;;4.30;99.90;;;;;;5037233;28;20224;-74
2021/10/25 01:28:56;;;;;;;17.60;7.23;;;4.30;99.90;;;;;;5050937;28;20204;-74
2021/10/25 01:31:24;;;;;;;13.30;6.30;;;4.30;99.90;;;;;;5047902;28;20231;-73
2021/10/25 01:33:53;;;;;;;14.97;6.40;;;4.30;99.90;;;;;;5045185;28;20270;-74
2021/10/25 01:36:24;;;;;;;13.33;6.00;;;4.40;99.90;;;;;;5046106;28;20681;-73
2021/10/25 01:38:53;;;;;;;14.13;5.80;;;4.30;99.90;;;;;;5050710;28;20254;-73
2021/10/25 01:41:20;;;;;;;13.77;6.33;;;4.40;99.90;;;;;;5050690;28;20246;-73
2021/10/25 01:43:48;;;;;;;15.87;6.97;;;4.40;99.90;;;;;;5050322;28;20213;-74
2021/10/25 01:46:16;;;;;;;16.40;6.60;;;4.40;99.90;;;;;;5049521;28;20258;-74
2021/10/25 01:48:43;;;;;;;15.23;6.37;;;4.40;99.90;;;;;;5044625;28;20209;-74
2021/10/25 01:51:10;;;;;;;13.27;6.47;;;4.40;99.90;;;;;;5050527;28;20511;-73
2021/10/25 01:53:38;;;;;;;13.67;6.40;;;4.40;99.90;;;;;;5050363;28;20259;-74
2021/10/25 01:56:09;;;;;;;16.40;6.43;;;4.40;99.90;;;;;;5049443;28;20668;-74
2021/10/25 01:58:38;;;;;;;14.60;6.50;;;4.40;99.90;;;;;;5043014;28;20233;-74
2021/10/25 02:01:07;;;;;;;15.97;7.37;;;4.40;99.90;;;;;;5040989;28;20194;-74
2021/10/25 02:03:34;;;;;;;18.20;7.63;;;4.40;99.90;;;;;;5050114;28;20292;-74
2021/10/25 02:06:10;;;;;;;16.80;7.17;;;4.40;99.90;;;;;;5039468;28;20538;-74
2021/10/25 02:08:37;;;;;;;13.47;7.03;;;4.40;99.90;;;;;;5041899;28;20212;-74
2021/10/25 02:11:07;;;;;;;15.10;7.07;;;4.40;99.90;;;;;;5050175;28;20593;-74
2021/10/25 02:13:36;;;;;;;15.17;7.20;;;4.40;99.90;;;;;;5049876;28;20200;-73
2021/10/25 02:16:06;;;;;;;18.83;7.57;;;4.40;99.90;;;;;;5040817;28;20233;-74
2021/10/25 02:18:33;;;;;;;18.23;8.63;;;4.40;99.90;;;;;;5050227;28;20247;-74
2021/10/25 02:21:06;;;;;;;17.50;7.70;;;4.30;99.90;;;;;;5050386;28;20201;-74
2021/10/25 02:23:33;;;;;;;13.50;6.80;;;4.30;99.90;;;;;;5050748;28;20208;-74
2021/10/25 02:26:01;;;;;;;14.47;6.87;;;4.50;99.90;;;;;;5036106;28;20208;-74
2021/10/25 02:28:30;;;;;;;21.10;7.37;;;4.30;99.90;;;;;;5049198;28;20281;-74
2021/10/25 02:30:57;;;;;;;14.13;7.27;;;4.30;99.90;;;;;;5048694;28;20227;-74
2021/10/25 02:33:28;;;;;;;12.87;7.00;;;4.30;99.90;;;;;;5038760;28;20201;-73
2021/10/25 02:35:55;;;;;;;13.90;6.90;;;4.30;99.90;;;;;;5042597;28;20267;-74
2021/10/25 02:38:24;;;;;;;17.97;7.13;;;4.30;99.90;;;;;;5042069;28;20205;-74
2021/10/25 02:40:57;;;;;;;17.67;8.10;;;4.20;99.90;;;;;;5048258;28;20281;-74
2021/10/25 02:43:24;;;;;;;17.53;7.50;;;4.20;99.90;;;;;;5049311;28;20201;-74
2021/10/25 02:45:57;;;;;;;15.97;6.77;;;4.20;99.90;;;;;;5029679;28;20227;-74
2021/10/25 02:48:25;;;;;;;18.67;7.37;;;4.20;99.90;;;;;;5041521;28;20225;-74
2021/10/25 02:50:52;;;;;;;20.30;7.90;;;4.20;99.90;;;;;;5037941;28;20221;-74
2021/10/25 02:53:20;;;;;;;17.57;8.40;;;4.20;99.90;;;;;;5046943;28;20634;-74
2021/10/25 02:55:50;;;;;;;21.07;8.90;;;4.20;99.90;;;;;;5047364;28;20198;-73
2021/10/25 02:58:18;;;;;;;17.60;7.83;;;4.20;99.90;;;;;;5030311;28;20198;-74
2021/10/25 03:00:52;;;;;;;23.43;8.40;;;4.10;99.90;;;;;;5040485;28;20197;-74
2021/10/25 03:03:20;;;;;;;20.80;8.70;;;4.10;99.90;;;;;;5050647;28;20642;-74
2021/10/25 03:05:47;;;;;;;23.40;9.13;;;4.10;99.90;;;;;;5050295;28;20209;-74
2021/10/25 03:08:14;;;;;;;19.70;8.53;;;4.00;99.90;;;;;;5044771;28;20297;-75
2021/10/25 03:10:42;;;;;;;20.23;8.77;;;4.00;99.90;;;;;;5050320;28;20490;-74
2021/10/25 03:13:09;;;;;;;22.50;9.07;;;4.00;99.90;;;;;;5049681;28;20201;-74
2021/10/25 03:15:36;;;;;;;26.57;9.73;;;4.00;99.90;;;;;;5044748;28;20229;-73
2021/10/25 03:18:09;;;;;;;20.03;9.00;;;4.00;99.90;;;;;;5046838;28;20569;-73
2021/10/25 03:20:40;;;;;;;20.60;8.97;;;3.90;99.90;;;;;;5050181;28;20596;-74
2021/10/25 03:23:09;;;;;;;16.90;8.37;;;3.90;99.90;;;;;;5048261;28;20267;-74
2021/10/25 03:25:37;;;;;;;16.43;7.73;;;3.90;99.90;;;;;;5030702;28;20255;-74
2021/10/25 03:28:05;;;;;;;22.93;8.57;;;3.80;99.90;;;;;;5029473;28;20666;-74
2021/10/25 03:30:35;;;;;;;16.40;7.50;;;3.80;99.90;;;;;;5030573;28;20226;-73
2021/10/25 03:33:05;;;;;;;18.27;7.90;;;3.80;99.90;;;;;;5050136;28;20225;-74
2021/10/25 03:35:51;;;;;;;17.63;7.00;;;3.80;99.90;;;;;;5049726;28;20316;-74
2021/10/25 03:38:23;;;;;;;20.20;7.00;;;3.80;99.90;;;;;;5030585;28;20205;-74
2021/10/25 03:40:52;;;;;;;18.63;7.83;;;3.80;99.90;;;;;;5047705;28;20670;-74
2021/10/25 03:43:22;;;;;;;18.97;6.97;;;3.80;99.90;;;;;;5049904;28;20201;-74
2021/10/25 03:45:52;;;;;;;18.17;7.43;;;3.80;99.90;;;;;;5048348;28;20765;-74
2021/10/25 03:48:25;;;;;;;24.13;8.83;;;3.80;99.90;;;;;;5049472;28;20201;-74
2021/10/25 03:50:54;;;;;;;25.43;9.10;;;3.80;99.90;;;;;;5042017;28;20225;-74
2021/10/25 03:53:32;;;;;;;20.50;8.20;;;3.80;99.90;;;;;;5045502;28;20233;-74
2021/10/25 03:56:05;;;;;;;19.20;7.07;;;3.80;99.90;;;;;;5045793;28;20225;-74
2021/10/25 03:58:57;;;;;;;17.33;7.80;;;3.80;99.90;;;;;;5041895;28;20702;-74
2021/10/25 04:27:29;;;;;;;15.60;7.00;;;3.80;99.90;;;;;;4857334;29;20275;-74
2021/10/25 04:30:02;;;;;;;14.07;6.13;;;3.70;99.90;;;;;;4858007;29;20727;-74
2021/10/25 04:32:31;;;;;;;18.17;6.47;;;3.70;99.90;;;;;;4874406;29;20895;-75
2021/10/25 04:35:01;;;;;;;13.23;6.53;;;3.70;99.90;;;;;;4859150;29;20524;-75
2021/10/25 04:37:52;;;;;;;17.37;7.27;;;3.70;99.90;;;;;;4873418;29;20807;-74
2021/10/25 04:40:23;;;;;;;17.07;7.20;;;3.70;99.90;;;;;;4877150;29;20221;-74
2021/10/25 04:42:51;;;;;;;17.87;7.10;;;3.60;99.90;;;;;;4895072;29;20346;-75
2021/10/25 04:45:19;;;;;;;10.87;6.00;;;3.60;99.90;;;;;;4895349;29;20609;-75
2021/10/25 04:47:55;;;;;;;8.27;5.00;;;3.60;99.90;;;;;;4911594;29;20203;-75
2021/10/25 04:50:49;;;;;;;12.20;5.63;;;3.60;99.90;;;;;;4911090;29;20210;-74
2021/10/25 04:53:37;;;;;;;13.70;6.20;;;3.70;99.90;;;;;;5015515;28;20229;-75
2021/10/25 04:56:07;;;;;;;13.30;6.10;;;3.60;99.90;;;;;;5045278;28;20203;-74
2021/10/25 04:58:34;;;;;;;12.43;6.03;;;3.60;99.90;;;;;;5043553;28;20209;-75
2021/10/25 05:01:02;;;;;;;11.77;5.70;;;3.60;99.90;;;;;;5047496;28;20223;-74
2021/10/25 05:03:31;;;;;;;13.00;6.60;;;3.60;99.90;;;;;;5048039;28;20274;-75
2021/10/25 05:05:59;;;;;;;10.37;5.50;;;3.60;99.90;;;;;;5048181;28;20231;-75
2021/10/25 05:08:28;;;;;;;11.07;5.40;;;3.60;99.90;;;;;;5036147;28;20222;-75
2021/10/25 05:10:56;;;;;;;14.07;6.60;;;3.60;99.90;;;;;;5038413;28;20202;-74
2021/10/25 05:13:24;;;;;;;14.03;5.90;;;3.60;99.90;;;;;;5040614;28;20254;-74
2021/10/25 05:15:51;;;;;;;12.87;6.87;;;3.60;99.90;;;;;;5033056;28;20678;-74
2021/10/25 05:18:18;;;;;;;15.60;7.27;;;3.60;99.90;;;;;;5041223;28;20214;-75
2021/10/25 05:20:46;;;;;;;13.40;6.33;;;3.60;99.90;;;;;;5041366;28;20205;-74
2021/10/25 05:23:12;;;;;;;14.57;7.00;;;3.60;99.90;;;;;;5033811;28;20206;-74
2021/10/25 05:25:41;;;;;;;13.23;6.57;;;3.60;99.90;;;;;;5034437;28;20686;-74
2021/10/25 05:28:09;;;;;;;18.03;7.87;;;3.60;99.90;;;;;;5037673;28;20217;-75
2021/10/25 05:30:37;;;;;;;16.07;6.73;;;3.60;99.90;;;;;;5027219;28;20290;-74
2021/10/25 05:33:05;;;;;;;17.13;6.63;;;3.50;99.90;;;;;;5035868;28;20705;-74
2021/10/25 05:35:33;;;;;;;15.60;7.70;;;3.50;99.90;;;;;;5047514;28;20224;-74
2021/10/25 05:38:00;;;;;;;22.17;8.60;;;3.50;99.90;;;;;;5047593;28;20634;-74
2021/10/25 05:40:27;;;;;;;20.07;8.00;;;3.50;99.90;;;;;;5046590;28;20552;-74
2021/10/25 05:43:03;;;;;;;14.07;7.00;;;3.50;99.90;;;;;;5046696;28;20208;-74
2021/10/25 05:45:30;;;;;;;17.30;6.83;;;3.50;99.90;;;;;;5046876;28;20300;-74
2021/10/25 05:48:02;;;;;;;14.90;6.40;;;3.50;99.90;;;;;;5047275;28;20213;-74
2021/10/25 05:50:29;;;;;;;10.70;6.30;;;3.50;99.90;;;;;;5047295;28;20221;-75
2021/10/25 05:52:57;;;;;;;14.13;6.30;;;3.60;99.90;;;;;;5049088;28;20600;-74
2021/10/25 05:55:25;;;;;;;11.47;6.00;;;3.60;99.90;;;;;;5050528;28;20667;-75
2021/10/25 05:57:55;;;;;;;10.77;6.27;;;3.60;99.90;;;;;;5030214;28;20220;-75
2021/10/25 06:00:26;;;;;;;13.13;6.27;;;3.60;99.90;;;;;;5042857;28;20214;-75
2021/10/25 06:02:55;;;;;;;13.97;6.50;;;3.70;99.90;;;;;;5031768;28;20764;-74
2021/10/25 06:05:30;;;;;;;18.03;8.53;;;3.70;99.90;;;;;;5021983;28;20659;-73
2021/10/25 06:07:58;;;;;;;18.90;7.73;;;3.70;99.90;;;;;;5039542;28;20235;-73
2021/10/25 06:10:28;;;;;;;17.70;8.67;;;3.70;99.90;;;;;;5056841;28;20198;-73
2021/10/25 06:12:58;;;;;;;18.47;7.47;;;3.80;99.90;;;;;;5039553;28;20707;-73
2021/10/25 06:15:44;;;;;;;16.80;7.57;;;3.80;99.90;;;;;;5060978;28;20240;-73
2021/10/25 06:18:11;;;;;;;16.10;7.03;;;3.80;99.90;;;;;;5044742;28;20232;-73
2021/10/25 06:20:41;;;;;;;18.00;7.87;;;3.80;99.90;;;;;;5041495;28;20246;-74
2021/10/25 06:23:18;;;;;;;18.97;8.20;;;3.80;99.90;;;;;;5042364;28;20197;-73
2021/10/25 06:25:50;;;;;;;21.00;8.77;;;3.90;99.90;;;;;;5058945;28;20225;-73
2021/10/25 06:28:20;;;;;;;27.27;9.50;;;3.80;99.90;;;;;;5057746;28;20190;-74
2021/10/25 06:30:58;;;;;;;20.53;9.10;;;3.80;99.90;;;;;;5035302;28;20205;-73
2021/10/25 06:33:36;;;;;;;23.67;8.93;;;3.80;99.90;;;;;;5038466;28;20239;-73
2021/10/25 06:36:28;;;;;;;17.63;7.73;;;3.80;99.90;;;;;;5056724;28;20658;-73
2021/10/25 06:39:12;;;;;;;17.10;8.73;;;3.90;99.90;;;;;;5043061;28;20205;-74
2021/10/25 06:41:48;;;;;;;20.80;9.40;;;3.90;99.90;;;;;;5044153;28;20722;-73
2021/10/25 06:44:23;;;;;;;16.63;8.80;;;3.90;99.90;;;;;;5039665;28;20549;-73
2021/10/25 06:46:55;;;;;;;18.53;8.73;;;4.00;99.90;;;;;;5040151;28;20291;-73
2021/10/25 06:49:24;;;;;;;22.00;9.13;;;4.00;99.90;;;;;;5037889;28;20205;-72
2021/10/25 06:51:53;;;;;;;20.23;9.70;;;4.10;99.90;;;;;;5037770;28;20217;-73
2021/10/25 06:54:21;;;;;;;22.73;9.30;;;4.20;99.90;;;;;;5040660;28;20222;-73
2021/10/25 06:56:48;;;;;;;22.67;9.10;;;4.20;99.90;;;;;;5042497;28;20197;-73
2021/10/25 06:59:16;;;;;;;18.20;8.47;;;4.30;99.90;;;;;;5042802;28;20205;-73
2021/10/25 07:01:43;;;;;;;17.50;8.23;;;4.30;99.90;;;;;;5041687;28;20680;-73
2021/10/25 07:04:10;;;;;;;18.37;9.27;;;4.40;99.90;;;;;;5044281;28;20200;-73
2021/10/25 07:06:38;;;;;;;16.10;7.63;;;4.40;99.90;;;;;;5047309;28;20201;-73
2021/10/25 07:09:07;;;;;;;19.03;7.23;;;4.50;99.90;;;;;;5040430;28;20532;-73
2021/10/25 07:11:38;;;;;;;20.30;9.03;;;4.70;99.90;;;;;;5035300;28;20204;-74
2021/10/25 07:14:06;;;;;;;20.00;9.13;;;4.90;99.90;;;;;;5037876;28;20361;-74
2021/10/25 07:16:37;;;;;;;19.83;8.30;;;5.70;99.90;;;;;;5042864;28;20204;-74
2021/10/25 07:19:25;;;;;;;17.40;8.27;;;6.90;99.90;;;;;;5045424;28;20604;-74
2021/10/25 08:07:09;;;;;;;16.97;7.47;;;9.00;99.90;;;;;;4957361;28;20229;-76
2021/10/25 08:10:07;;;;;;;14.97;7.97;;;9.20;99.90;;;;;;4984489;28;20221;-76
2021/10/25 08:12:36;;;;;;;16.63;8.10;;;9.50;99.90;;;;;;4975002;28;20307;-75
2021/10/25 08:15:07;;;;;;;16.83;7.83;;;10.00;99.90;;;;;;4984905;28;20204;-76
2021/10/25 08:17:42;;;;;;;14.00;7.30;;;11.30;99.90;;;;;;4986328;28;20537;-74
2021/10/25 08:20:10;;;;;;;14.50;7.17;;;12.60;99.90;;;;;;4981987;28;20294;-74
2021/10/25 08:22:38;;;;;;;19.13;7.90;;;12.90;98.50;;;;;;4998939;28;20782;-74
2021/10/25 08:25:08;;;;;;;15.27;8.67;;;12.70;97.60;;;;;;4987005;28;20297;-74
2021/10/25 08:27:52;;;;;;;16.63;7.57;;;12.30;97.20;;;;;;4984092;28;20430;-74
2021/10/25 08:30:21;;;;;;;15.07;8.37;;;12.00;97.70;;;;;;4979607;28;20219;-75
2021/10/25 08:33:05;;;;;;;18.00;7.63;;;12.20;97.60;;;;;;4983903;28;20576;-75
2021/10/25 08:35:51;;;;;;;12.77;6.47;;;13.20;97.30;;;;;;5000678;28;20293;-75
2021/10/25 08:41:30;;;;;;;10.23;6.17;;;16.50;93.20;;;;;;5020246;28;20205;-75
2021/10/25 08:43:59;;;;;;;10.43;5.67;;;17.80;90.70;;;;;;5043200;28;20210;-75
2021/10/25 08:46:29;;;;;;;10.57;5.93;;;18.90;87.10;;;;;;5044074;28;20196;-74
2021/10/25 08:48:57;;;;;;;16.83;7.10;;;19.60;80.70;;;;;;5039618;28;20633;-75
2021/10/25 08:51:26;;;;;;;13.57;7.43;;;20.20;76.10;;;;;;5045872;28;20204;-74
2021/10/25 08:53:53;;;;;;;12.57;6.77;;;20.80;72.50;;;;;;5038821;28;20230;-75
2021/10/25 08:56:20;;;;;;;12.75;7.30;;;21.40;69.20;;;;;;5039386;28;20511;-75
2021/10/25 08:58:56;;;;;;;11.02;6.20;;;21.50;66.70;;;;;;5041956;28;20220;-75
2021/10/25 09:01:27;;;;;;;12.52;6.55;;;22.10;65.80;;;;;;5039580;28;20214;-75
2021/10/25 09:04:09;;;;;;;11.57;6.50;;;22.20;62.70;;;;;;5040131;28;21314;-75
2021/10/25 09:06:50;;;;;;;13.07;7.38;;;22.20;61.30;;;;;;5044208;28;20194;-75
2021/10/25 09:09:23;;;;;;;11.25;6.60;;;22.00;58.70;;;;;;5035126;28;20297;-75
2021/10/25 09:12:06;;;;;;;11.82;7.13;;;21.90;59.70;;;;;;5043604;28;20212;-75
2021/10/25 09:14:45;;;;;;;12.30;7.13;;;22.00;59.30;;;;;;5040878;28;20274;-75
2021/10/25 09:17:15;;;;;;;13.52;7.03;;;22.50;57.60;;;;;;5042250;28;20570;-75
2021/10/25 09:20:06;;;;;;;15.30;7.70;;;22.90;55.60;;;;;;5033316;28;20212;-75
2021/10/25 09:22:35;;;;;;;11.00;6.50;;;23.00;53.10;;;;;;5035051;28;20571;-76
2021/10/25 09:25:04;;;;;;;16.00;8.45;;;23.20;53.40;;;;;;5042617;28;20706;-75
2021/10/25 09:27:41;;;;;;;10.65;6.72;;;23.50;52.20;;;;;;5035348;28;21070;-76
2021/10/25 09:30:14;;;;;;;11.15;6.63;;;23.70;51.50;;;;;;5031915;28;20230;-76
2021/10/25 09:32:44;;;;;;;11.13;6.70;;;24.20;52.00;;;;;;5041253;28;20316;-76
2021/10/25 09:35:39;;;;;;;11.57;6.65;;;24.60;50.70;;;;;;5044341;28;20212;-76
2021/10/25 09:38:24;;;;;;;12.50;7.03;;;25.00;49.20;;;;;;5042731;28;20884;-75
2021/10/25 09:41:18;;;;;;;14.30;7.22;;;25.20;47.80;;;;;;5039322;28;20226;-75
2021/10/25 09:49:34;;;;;;;12.73;6.50;;;25.50;45.80;;;;;;4902550;29;20206;-75
2021/10/25 09:52:06;;;;;;;11.57;6.18;;;25.70;45.00;;;;;;4902445;29;20317;-76
2021/10/25 09:54:36;;;;;;;13.80;6.63;;;25.80;44.70;;;;;;4903992;29;20214;-76
2021/10/25 09:57:09;;;;;;;13.25;6.63;;;26.00;44.00;;;;;;4898537;29;20202;-75
2021/10/25 09:59:53;;;;;;;7.88;5.82;;;26.00;43.40;;;;;;4913152;29;20461;-75
2021/10/25 10:02:30;;;;;;;8.52;5.82;;;25.90;43.60;;;;;;4919585;29;20253;-75
2021/10/25 10:05:04;;;;;;;8.90;6.22;;;26.10;43.60;;;;;;4907299;29;20210;-75
2021/10/25 10:07:35;;;;;;;13.88;7.00;;;25.90;42.70;;;;;;4905562;29;20304;-75
2021/10/25 10:10:14;;;;;;;11.90;6.60;;;25.70;42.80;;;;;;4904951;29;20457;-75
2021/10/25 10:12:47;;;;;;;9.45;6.03;;;25.50;42.90;;;;;;4918527;29;20229;-75
2021/10/25 10:15:14;;;;;;;12.40;7.25;;;25.50;43.10;;;;;;4902425;29;20216;-75
2021/10/25 10:17:50;;;;;;;11.90;7.70;;;25.50;43.00;;;;;;4929526;28;20628;-74
2021/10/25 10:20:25;;;;;;;12.20;7.60;;;25.40;42.60;;;;;;4962222;28;20495;-74
2021/10/25 10:22:58;;;;;;;11.88;7.57;;;25.40;42.60;;;;;;4967382;28;20195;-74
2021/10/25 10:25:36;;;;;;;12.23;6.82;;;25.20;41.90;;;;;;4963938;28;20266;-74
2021/10/25 10:28:06;;;;;;;14.27;7.00;;;24.70;41.60;;;;;;5015300;28;20211;-75
2021/10/25 10:30:48;;;;;;;7.70;5.53;;;24.50;42.00;;;;;;5018899;28;20572;-74
2021/10/25 10:33:15;;;;;;;9.43;6.15;;;24.70;42.40;;;;;;5022021;28;20238;-75
2021/10/25 10:35:48;;;;;;;9.25;6.05;;;25.10;42.20;;;;;;5020364;28;20477;-75
2021/10/25 10:38:16;;;;;;;7.45;5.07;;;25.50;41.40;;;;;;5018081;28;20203;-76
2021/10/25 10:40:54;;;;;;;8.23;4.88;;;25.80;41.40;;;;;;5016659;28;20685;-75
2021/10/25 10:43:39;;;;;;;9.63;5.78;;;26.10;41.00;;;;;;5017646;28;20676;-75
2021/10/25 10:46:15;;;;;;;7.68;5.07;;;26.30;41.40;;;;;;5020426;28;20240;-74
2021/10/25 10:48:45;;;;;;;10.40;5.22;;;26.40;40.20;;;;;;5016268;28;20206;-75
2021/10/25 10:51:15;;;;;;;6.93;5.07;;;26.60;40.10;;;;;;5021965;28;20585;-74
2021/10/25 10:53:53;;;;;;;6.55;4.88;;;26.90;39.70;;;;;;5032591;28;20229;-75
2021/10/25 10:56:27;;;;;;;7.03;4.97;;;27.10;39.40;;;;;;5035368;28;20912;-75
2021/10/25 10:59:07;;;;;;;8.25;5.22;;;27.10;38.70;;;;;;5038342;28;20669;-74
2021/10/25 11:01:35;;;;;;;8.32;5.15;;;27.10;38.10;;;;;;5038103;28;20198;-74
2021/10/25 11:04:04;;;;;;;6.88;4.70;;;27.00;38.20;;;;;;5040024;28;20563;-75
2021/10/25 11:06:33;;;;;;;7.70;4.80;;;27.00;38.40;;;;;;5035680;28;20253;-74
2021/10/25 11:09:07;;;;;;;5.63;4.15;;;27.00;38.30;;;;;;5034728;28;20224;-74
2021/10/25 11:11:36;;;;;;;6.80;4.65;;;26.70;38.30;;;;;;5038702;28;20673;-74
2021/10/25 11:14:07;;;;;;;6.07;4.10;;;25.80;38.80;;;;;;5037394;28;20221;-74
2021/10/25 11:16:40;;;;;;;9.40;4.68;;;24.70;39.40;;;;;;5042001;28;20338;-73
2021/10/25 11:19:08;;;;;;;6.97;4.47;;;23.80;40.20;;;;;;5060020;28;20202;-73
2021/10/25 11:21:39;;;;;;;6.95;4.88;;;22.90;41.10;;;;;;5042080;28;20208;-73
2021/10/25 11:24:08;;;;;;;8.15;5.05;;;22.20;42.00;;;;;;5042740;28;20658;-73
2021/10/25 11:26:37;;;;;;;8.98;5.47;;;21.60;42.70;;;;;;5043919;28;20297;-74
2021/10/25 11:29:08;;;;;;;9.98;5.28;;;21.00;42.90;;;;;;5041164;28;20332;-74
2021/10/25 11:31:38;;;;;;;6.95;4.53;;;20.30;43.00;;;;;;5045818;28;20206;-74
2021/10/25 11:34:18;;;;;;;8.60;5.20;;;19.70;43.40;;;;;;5044484;28;20221;-74
2021/10/25 11:37:01;;;;;;;9.00;5.47;;;19.10;44.00;;;;;;5042726;28;20194;-74
2021/10/25 11:39:30;;;;;;;8.75;4.90;;;18.60;44.60;;;;;;5044973;28;20680;-74
2021/10/25 11:41:58;;;;;;;9.80;4.63;;;18.20;45.10;;;;;;5045635;28;20289;-74
2021/10/25 11:44:25;;;;;;;9.15;4.65;;;17.80;45.70;;;;;;5042078;28;20191;-74
2021/10/25 11:46:52;;;;;;;6.32;4.03;;;17.50;46.40;;;;;;5041198;28;20186;-74
2021/10/25 11:49:26;;;;;;;7.40;4.30;;;17.20;46.90;;;;;;5044376;28;20229;-74
2021/10/25 11:51:55;;;;;;;6.35;4.20;;;17.00;47.50;;;;;;5046407;28;20699;-74
2021/10/25 11:54:24;;;;;;;7.10;4.25;;;16.80;48.00;;;;;;5055657;28;20638;-74
2021/10/25 11:56:52;;;;;;;7.60;4.33;;;16.50;48.30;;;;;;5046435;28;20731;-74
2021/10/25 11:59:21;;;;;;;8.13;4.73;;;16.40;48.70;;;;;;5064962;28;20198;-74
2021/10/25 12:01:49;;;;;;;9.80;4.57;;;16.10;49.20;;;;;;5065667;28;20279;-74
2021/10/25 12:04:19;;;;;;;8.17;4.73;;;15.90;49.50;;;;;;5044073;28;20193;-74
2021/10/25 12:06:54;;;;;;;7.60;4.77;;;15.70;49.80;;;;;;5062935;28;20205;-74
2021/10/25 12:09:31;;;;;;;7.50;4.27;;;15.60;50.20;;;;;;5061157;28;20612;-74
2021/10/25 12:12:05;;;;;;;8.90;4.60;;;15.50;50.60;;;;;;5043429;28;20212;-74
2021/10/25 12:14:35;;;;;;;8.93;4.67;;;15.30;51.20;;;;;;5057460;28;20324;-74
2021/10/25 12:17:03;;;;;;;10.53;5.00;;;15.20;51.60;;;;;;5060628;28;20842;-75
2021/10/25 12:19:30;;;;;;;10.37;5.20;;;15.10;52.00;;;;;;5047200;28;20194;-75
2021/10/25 12:22:08;;;;;;;9.97;5.07;;;14.90;52.30;;;;;;5064439;28;20225;-74
2021/10/25 12:24:40;;;;;;;7.73;4.50;;;14.90;52.70;;;;;;5056422;28;20203;-74
2021/10/25 12:27:08;;;;;;;11.93;4.63;;;14.80;52.90;;;;;;5044219;28;20189;-75
2021/10/25 12:29:35;;;;;;;9.80;4.80;;;14.70;53.10;;;;;;5065330;28;20200;-74
2021/10/25 12:32:11;;;;;;;6.97;4.17;;;14.60;53.20;;;;;;5066609;28;20193;-75
2021/10/25 12:34:49;;;;;;;9.37;4.50;;;14.50;53.40;;;;;;5044020;28;20235;-72
2021/10/25 12:37:19;;;;;;;7.07;4.60;;;14.50;53.50;;;;;;5046221;28;20218;-74
2021/10/25 12:39:48;;;;;;;7.10;4.37;;;14.40;53.70;;;;;;5066131;28;20197;-74
2021/10/25 12:42:15;;;;;;;8.77;4.03;;;14.30;53.80;;;;;;5045412;28;20568;-74
2021/10/25 12:44:48;;;;;;;9.00;4.10;;;14.20;54.00;;;;;;5063750;28;20225;-74
2021/10/25 12:47:19;;;;;;;9.47;4.53;;;14.10;54.10;;;;;;5064029;28;20583;-74
2021/10/25 12:49:48;;;;;;;7.87;4.30;;;14.00;54.40;;;;;;5042727;28;20259;-74
2021/10/25 12:52:16;;;;;;;8.40;4.57;;;14.00;54.60;;;;;;5042351;28;20315;-74
2021/10/25 12:54:44;;;;;;;8.13;4.57;;;13.90;54.70;;;;;;5046692;28;20775;-73
2021/10/25 12:57:21;;;;;;;8.03;4.30;;;13.90;54.90;;;;;;5047174;28;20382;-74
2021/10/25 13:00:07;;;;;;;8.53;3.93;;;13.80;55.10;;;;;;5055368;28;20657;-74
2021/10/25 13:02:41;;;;;;;6.80;3.97;;;13.80;55.90;;;;;;5060748;28;20233;-74
2021/10/25 13:05:13;;;;;;;6.40;4.13;;;13.70;56.20;;;;;;5062889;28;20691;-74
2021/10/25 13:07:46;;;;;;;9.23;4.47;;;13.70;55.90;;;;;;5046301;28;20202;-74
2021/10/25 13:10:14;;;;;;;10.10;4.27;;;13.60;56.00;;;;;;5043500;28;20301;-72
2021/10/25 13:12:42;;;;;;;8.57;4.60;;;13.60;56.20;;;;;;5046391;28;20621;-74
2021/10/25 13:15:10;;;;;;;7.70;4.97;;;13.50;56.40;;;;;;5047167;28;20221;-74
2021/10/25 13:17:37;;;;;;;8.37;4.63;;;13.50;56.70;;;;;;5053519;28;20193;-74
2021/10/25 13:20:06;;;;;;;5.53;3.77;;;13.40;56.80;;;;;;5047602;28;20244;-74
2021/10/25 13:22:33;;;;;;;8.20;4.57;;;13.40;57.00;;;;;;5048536;28;20210;-74
2021/10/25 13:25:00;;;;;;;8.40;4.67;;;13.40;57.30;;;;;;5063117;28;20666;-71
2021/10/25 13:27:27;;;;;;;9.82;4.80;;;13.40;57.50;;;;;;5046605;28;20896;-74
2021/10/25 13:29:56;;;;;;;6.00;4.00;;;13.40;57.80;;;;;;5044291;28;20434;-74
2021/10/25 13:32:23;;;;;;;11.00;4.70;;;13.50;58.40;;;;;;5056122;28;20279;-74
2021/10/25 13:34:51;;;;;;;10.70;5.30;;;13.40;58.40;;;;;;5049394;28;20434;-74
2021/10/25 13:37:18;;;;;;;6.95;4.25;;;13.50;58.60;;;;;;5064666;28;20428;-74
2021/10/25 13:39:45;;;;;;;6.93;3.92;;;13.50;58.80;;;;;;5039419;28;20457;-74
2021/10/25 13:42:12;;;;;;;8.83;5.00;;;13.50;58.90;;;;;;5041215;28;20226;-74
2021/10/25 13:44:39;;;;;;;8.60;4.30;;;13.50;59.20;;;;;;5043359;28;20215;-74
2021/10/25 13:47:08;;;;;;;11.17;4.47;;;13.40;59.20;;;;;;5059641;28;20225;-74
2021/10/25 13:49:35;;;;;;;6.93;3.80;;;13.40;59.50;;;;;;5059977;28;20195;-76
2021/10/25 13:52:02;;;;;;;9.98;5.10;;;13.40;59.60;;;;;;5038335;28;20521;-75
2021/10/25 13:54:30;;;;;;;8.33;4.83;;;13.40;60.40;;;;;;5049184;28;20690;-75
2021/10/25 13:56:58;;;;;;;10.07;5.00;;;13.40;60.60;;;;;;5044057;28;20209;-76
2021/10/25 13:59:25;;;;;;;10.17;4.77;;;13.30;60.70;;;;;;5048413;28;20677;-76
2021/10/25 14:01:52;;;;;;;10.70;4.83;;;13.30;61.00;;;;;;5066967;28;20190;-76
2021/10/25 14:04:21;;;;;;;12.30;5.67;;;13.20;61.30;;;;;;5067970;28;20522;-76
2021/10/25 14:06:48;;;;;;;10.10;5.03;;;13.20;61.80;;;;;;5044701;28;20209;-76
2021/10/25 14:09:15;;;;;;;12.37;5.50;;;13.10;62.20;;;;;;5042759;28;20233;-76
2021/10/25 14:11:45;;;;;;;13.10;5.93;;;13.00;62.70;;;;;;5049800;28;20231;-76
2021/10/25 14:14:17;;;;;;;10.43;5.60;;;12.90;63.20;;;;;;5032728;28;20214;-76
2021/10/25 14:16:50;;;;;;;10.33;5.20;;;12.90;63.80;;;;;;5049793;28;20199;-76
2021/10/25 14:19:18;;;;;;;11.43;5.13;;;12.80;64.20;;;;;;5044862;28;20204;-76
2021/10/25 14:21:47;;;;;;;7.83;4.50;;;12.70;65.00;;;;;;5050598;28;20197;-76
2021/10/25 14:24:14;;;;;;;9.50;4.50;;;12.70;65.20;;;;;;5049914;28;20300;-76